Time;durP1;ratioP1;P1;durP2;ratioP2;P2;SDS_P1;SDS_P2;PMS_P1;PMS_P2;Temp;Humidity;BMP_temperature;BMP_pressure;BME280_temperature;BME280_humidity;BME280_pressure;Samples;Min_cycle;Max_cycle;Signal;HPM_P1;HPM_P2
2023/05/16 00:00:52;;;;;;;1.88;0.50;;;;;;;18.24;53.45;94841.84;5035850;28;20029;-34
2023/05/16 00:03:18;;;;;;;1.02;0.40;;;;;;;18.17;53.72;94850.69;5036158;28;20018;-33
2023/05/16 00:05:44;;;;;;;1.08;0.60;;;;;;;18.25;53.64;94852.31;5035851;28;20021;-34
2023/05/16 00:08:10;;;;;;;1.25;0.40;;;;;;;17.97;54.21;94843.63;5035873;28;20032;-34
2023/05/16 00:10:36;;;;;;;1.77;0.63;;;;;;;18.05;53.97;94836.28;5035697;28;20021;-34
2023/05/16 00:13:02;;;;;;;0.60;0.40;;;;;;;18.24;53.58;94839.84;5035119;28;20048;-34
2023/05/16 00:15:28;;;;;;;2.33;0.40;;;;;;;18.06;53.93;94829.56;5035757;28;20073;-34
2023/05/16 00:17:57;;;;;;;2.88;0.65;;;;;;;17.94;54.11;94839.16;5036226;28;20041;-34
2023/05/16 00:20:23;;;;;;;0.60;0.40;;;;;;;18.13;53.83;94829.00;5035594;28;20075;-34
2023/05/16 00:22:49;;;;;;;0.50;0.30;;;;;;;18.20;53.91;94828.41;5035671;28;20049;-33
2023/05/16 00:25:17;;;;;;;1.75;0.50;;;;;;;17.88;54.45;94831.00;5035704;28;20104;-33
2023/05/16 00:27:42;;;;;;;1.40;0.60;;;;;;;18.06;54.09;94813.09;5035294;28;20358;-34
2023/05/16 00:30:08;;;;;;;0.50;0.30;;;;;;;17.94;54.79;94822.69;5035412;28;20024;-34
2023/05/16 00:32:35;;;;;;;1.08;0.40;;;;;;;17.95;54.77;94819.44;5035058;28;20412;-34
2023/05/16 00:35:00;;;;;;;0.35;0.30;;;;;;;17.90;54.94;94812.03;5035365;28;20018;-34
2023/05/16 00:37:26;;;;;;;0.40;0.40;;;;;;;18.09;54.58;94805.84;5035928;28;20063;-36
2023/05/16 00:39:51;;;;;;;1.50;0.30;;;;;;;17.98;54.43;94812.19;5035450;28;20025;-35
2023/05/16 00:42:19;;;;;;;0.50;0.32;;;;;;;18.11;54.59;94814.31;5035019;28;20370;-34
2023/05/16 00:44:44;;;;;;;1.02;0.50;;;;;;;18.07;54.81;94817.31;5035007;28;20025;-34
2023/05/16 00:47:10;;;;;;;0.52;0.30;;;;;;;17.94;55.04;94811.72;5038561;28;20021;-34
2023/05/16 00:49:35;;;;;;;1.85;0.70;;;;;;;18.14;54.42;94807.78;5039814;28;20025;-34
2023/05/16 00:52:02;;;;;;;2.47;0.60;;;;;;;18.12;54.85;94810.31;5035197;28;20075;-34
2023/05/16 00:54:29;;;;;;;1.05;0.40;;;;;;;18.12;54.91;94800.06;5034951;28;20401;-34
2023/05/16 00:56:56;;;;;;;1.48;0.47;;;;;;;18.08;54.72;94793.38;5036801;28;20492;-34
2023/05/16 00:59:24;;;;;;;0.82;0.50;;;;;;;17.99;55.02;94796.47;5034745;28;20420;-33
2023/05/16 01:01:50;;;;;;;0.60;0.43;;;;;;;17.94;55.55;94792.53;5033601;28;20021;-34
2023/05/16 01:04:16;;;;;;;1.92;0.50;;;;;;;18.12;54.92;94782.88;5034959;28;20122;-34
2023/05/16 01:06:43;;;;;;;1.67;0.40;;;;;;;18.12;54.85;94782.88;5034912;28;20104;-35
2023/05/16 01:09:09;;;;;;;1.33;0.30;;;;;;;18.03;55.23;94780.47;5033328;28;20057;-34
2023/05/16 01:11:56;;;;;;;0.63;0.40;;;;;;;18.10;55.19;94774.41;5041759;28;20360;-34
2023/05/16 01:14:33;;;;;;;0.93;0.32;;;;;;;18.06;55.15;94774.69;5034598;28;20033;-34
2023/05/16 01:17:05;;;;;;;0.85;0.30;;;;;;;18.09;55.17;94770.91;5034768;28;20022;-34
2023/05/16 01:19:52;;;;;;;5.30;0.50;;;;;;;18.00;55.40;94765.78;5041306;28;20025;-34
2023/05/16 01:22:37;;;;;;;1.90;0.40;;;;;;;18.19;55.19;94752.84;5034920;28;20017;-34
2023/05/16 01:25:15;;;;;;;2.60;0.50;;;;;;;18.03;55.80;94744.81;5035577;28;20028;-34
2023/05/16 01:27:42;;;;;;;1.08;0.50;;;;;;;18.16;55.48;94751.16;5034313;28;20017;-34
2023/05/16 01:30:18;;;;;;;0.75;0.40;;;;;;;18.04;55.60;94752.53;5034387;28;20052;-34
2023/05/16 01:32:44;;;;;;;1.30;0.50;;;;;;;18.13;55.60;94752.19;5032981;28;20116;-34
2023/05/16 01:35:13;;;;;;;0.98;0.40;;;;;;;18.02;56.04;94754.31;5034359;28;20100;-34
2023/05/16 01:37:56;;;;;;;1.70;0.40;;;;;;;18.01;55.81;94744.59;5034616;28;20021;-34
2023/05/16 01:40:34;;;;;;;0.80;0.45;;;;;;;18.07;55.62;94743.25;5033966;28;20025;-34
2023/05/16 01:43:04;;;;;;;2.92;0.40;;;;;;;18.07;55.85;94743.25;5034012;28;20037;-34
2023/05/16 01:45:33;;;;;;;0.75;0.40;;;;;;;18.01;56.03;94734.38;5033736;28;20017;-34
2023/05/16 01:48:15;;;;;;;0.98;0.50;;;;;;;18.08;55.65;94728.28;5034045;28;20033;-34
2023/05/16 01:50:48;;;;;;;3.35;0.40;;;;;;;17.94;55.82;94737.66;5034009;28;20112;-34
2023/05/16 01:53:25;;;;;;;0.77;0.40;;;;;;;17.98;55.97;94724.41;5040042;28;20032;-34
2023/05/16 01:55:52;;;;;;;0.43;0.28;;;;;;;18.20;55.38;94710.44;5034097;28;20029;-34
2023/05/16 01:58:21;;;;;;;1.35;0.40;;;;;;;17.93;56.23;94706.75;5032085;28;20863;-34
2023/05/16 02:00:47;;;;;;;2.40;0.50;;;;;;;18.04;55.85;94703.16;5033834;28;20029;-34
2023/05/16 02:03:13;;;;;;;1.50;0.50;;;;;;;18.12;55.55;94708.81;5033896;28;20465;-34
2023/05/16 02:05:39;;;;;;;2.58;0.40;;;;;;;17.97;55.67;94698.25;5033649;28;20021;-34
2023/05/16 02:08:05;;;;;;;0.52;0.30;;;;;;;17.87;56.11;94697.13;5033505;28;20028;-34
2023/05/16 02:10:30;;;;;;;0.55;0.20;;;;;;;18.10;55.37;94686.63;5033846;28;20035;-34
2023/05/16 02:12:55;;;;;;;0.80;0.45;;;;;;;17.98;55.64;94707.97;5033594;28;20101;-33
2023/05/16 02:15:21;;;;;;;0.60;0.30;;;;;;;18.01;55.81;94698.72;5033570;28;20055;-34
2023/05/16 02:17:47;;;;;;;0.50;0.40;;;;;;;17.86;55.84;94695.63;5033918;28;20017;-34
2023/05/16 02:20:13;;;;;;;0.32;0.28;;;;;;;18.05;55.69;94688.16;5033457;28;20017;-34
2023/05/16 02:22:38;;;;;;;0.93;0.40;;;;;;;18.11;55.35;94683.38;5033152;28;20583;-34
2023/05/16 02:25:05;;;;;;;0.50;0.32;;;;;;;17.97;55.63;94681.03;5033655;28;20057;-34
2023/05/16 02:27:30;;;;;;;1.38;0.45;;;;;;;17.99;55.50;94675.78;5033247;28;20481;-34
2023/05/16 02:29:56;;;;;;;1.73;0.40;;;;;;;18.02;55.35;94667.28;5033611;28;20036;-34
2023/05/16 02:32:21;;;;;;;0.40;0.28;;;;;;;18.09;55.47;94663.94;5033188;28;20021;-34
2023/05/16 02:34:47;;;;;;;0.95;0.40;;;;;;;17.95;55.59;94663.09;5033346;28;20055;-34
2023/05/16 02:37:12;;;;;;;0.95;0.20;;;;;;;17.91;55.70;94664.69;5033430;28;20116;-34
2023/05/16 02:39:38;;;;;;;1.25;0.20;;;;;;;17.93;55.81;94657.38;5032992;28;20025;-34
2023/05/16 02:42:05;;;;;;;2.17;0.43;;;;;;;17.91;55.64;94642.72;5033573;28;20017;-35
2023/05/16 02:44:43;;;;;;;0.47;0.20;;;;;;;17.91;55.61;94650.97;5032927;28;20025;-34
2023/05/16 02:47:08;;;;;;;0.40;0.30;;;;;;;17.95;55.54;94641.16;5033464;28;20017;-34
2023/05/16 02:49:33;;;;;;;0.52;0.30;;;;;;;17.93;55.71;94642.94;5033058;28;20028;-34
2023/05/16 02:51:59;;;;;;;0.20;0.17;;;;;;;17.80;55.68;94653.84;5033031;28;20473;-34
2023/05/16 02:54:24;;;;;;;0.52;0.28;;;;;;;17.77;55.75;94641.91;5039862;28;20029;-33
2023/05/16 02:56:50;;;;;;;1.08;0.30;;;;;;;17.89;55.93;94634.28;5035711;28;20028;-34
2023/05/16 02:59:15;;;;;;;1.98;0.50;;;;;;;17.97;55.41;94631.69;5033293;28;20057;-34
2023/05/16 03:01:42;;;;;;;0.88;0.30;;;;;;;17.95;55.70;94632.94;5033092;28;20013;-34
2023/05/16 03:04:07;;;;;;;0.82;0.32;;;;;;;18.04;55.22;94620.88;5031672;28;20035;-34
2023/05/16 03:06:32;;;;;;;1.70;0.40;;;;;;;18.09;55.03;94617.31;5032849;28;20108;-36
2023/05/16 03:08:58;;;;;;;2.92;0.60;;;;;;;17.93;55.81;94612.75;5032761;28;20488;-34
2023/05/16 03:11:24;;;;;;;2.10;0.50;;;;;;;17.70;56.17;94614.31;5032856;28;20025;-34
2023/05/16 03:13:50;;;;;;;0.90;0.35;;;;;;;17.87;55.71;94601.88;5032940;28;20067;-34
2023/05/16 03:16:15;;;;;;;1.67;0.30;;;;;;;17.87;55.60;94599.16;5032607;28;20013;-33
2023/05/16 03:18:41;;;;;;;0.85;0.38;;;;;;;17.91;55.80;94585.88;5040482;28;20048;-34
2023/05/16 03:21:07;;;;;;;3.13;0.50;;;;;;;17.74;56.00;94585.34;5032525;28;20025;-34
2023/05/16 03:23:33;;;;;;;2.72;0.40;;;;;;;17.81;55.97;94578.53;5032752;28;20021;-34
2023/05/16 03:25:58;;;;;;;0.98;0.20;;;;;;;17.69;55.97;94580.66;5031504;28;20396;-34
2023/05/16 03:28:24;;;;;;;1.25;0.20;;;;;;;17.82;55.75;94580.00;5033221;28;20021;-34
2023/05/16 03:30:50;;;;;;;1.40;0.55;;;;;;;17.86;55.49;94575.72;5039863;28;20029;-34
2023/05/16 03:33:15;;;;;;;1.40;0.20;;;;;;;17.73;55.54;94567.41;5032719;28;20025;-33
2023/05/16 03:35:42;;;;;;;1.08;0.43;;;;;;;17.77;55.84;94578.09;5033145;28;20531;-34
2023/05/16 03:38:08;;;;;;;2.50;0.40;;;;;;;18.01;55.34;94574.53;5032765;28;20068;-34
2023/05/16 03:40:34;;;;;;;1.35;0.40;;;;;;;17.82;55.58;94574.53;5032847;28;20029;-34
2023/05/16 03:42:59;;;;;;;1.38;0.20;;;;;;;17.83;55.60;94567.78;5032311;28;20036;-34
2023/05/16 03:45:25;;;;;;;0.60;0.15;;;;;;;17.88;55.22;94572.47;5032814;28;20027;-34
2023/05/16 03:47:50;;;;;;;1.15;0.30;;;;;;;17.70;55.86;94568.44;5032611;28;20071;-35
2023/05/16 03:50:16;;;;;;;1.95;0.20;;;;;;;17.81;55.62;94559.31;5035909;28;20045;-35
2023/05/16 03:52:41;;;;;;;1.40;0.40;;;;;;;17.90;55.56;94564.47;5036194;28;20030;-36
2023/05/16 03:55:08;;;;;;;0.32;0.22;;;;;;;17.88;55.20;94564.22;5036049;28;20034;-34
2023/05/16 03:57:35;;;;;;;1.10;0.20;;;;;;;17.82;55.73;94569.78;5035831;28;20140;-34
2023/05/16 04:00:02;;;;;;;0.45;0.20;;;;;;;17.82;55.54;94580.00;5035823;28;20075;-34
2023/05/16 04:02:28;;;;;;;1.38;0.20;;;;;;;17.87;55.49;94573.72;5043305;28;20033;-34
2023/05/16 04:04:54;;;;;;;0.50;0.35;;;;;;;17.75;55.78;94570.38;5036145;28;20415;-34
2023/05/16 04:07:19;;;;;;;0.45;0.30;;;;;;;17.79;55.79;94573.59;5035845;28;20028;-34
2023/05/16 04:09:45;;;;;;;0.30;0.20;;;;;;;17.80;56.00;94571.59;5036000;28;20014;-34
2023/05/16 04:12:10;;;;;;;0.77;0.30;;;;;;;17.82;55.52;94574.53;5035615;28;20021;-34
2023/05/16 04:14:37;;;;;;;0.32;0.20;;;;;;;17.82;55.58;94563.56;5035807;28;20025;-33
2023/05/16 04:17:02;;;;;;;1.67;0.30;;;;;;;17.74;55.50;94560.66;5036128;28;20475;-34
2023/05/16 04:19:28;;;;;;;1.63;0.77;;;;;;;17.69;55.80;94566.22;5042709;28;20049;-34
2023/05/16 04:21:53;;;;;;;0.20;0.20;;;;;;;17.91;55.71;94565.94;5035509;28;20009;-34
2023/05/16 04:24:19;;;;;;;0.60;0.30;;;;;;;17.61;55.88;94560.56;5035537;28;20021;-33
2023/05/16 04:26:44;;;;;;;0.30;0.20;;;;;;;17.63;55.84;94557.31;5035759;28;20025;-34
2023/05/16 04:29:10;;;;;;;1.55;0.20;;;;;;;17.74;55.92;94554.44;5042606;28;20068;-34
2023/05/16 04:31:36;;;;;;;0.32;0.10;;;;;;;17.70;56.14;94548.50;5035278;28;20386;-33
2023/05/16 04:34:02;;;;;;;2.67;0.20;;;;;;;17.66;56.21;94543.34;5035188;28;20013;-33
2023/05/16 04:36:28;;;;;;;2.33;0.25;;;;;;;17.70;56.05;94532.81;5035481;28;20029;-34
2023/05/16 04:38:55;;;;;;;0.68;0.13;;;;;;;17.64;56.01;94540.38;5035566;28;20029;-34
2023/05/16 04:41:21;;;;;;;1.02;0.30;;;;;;;17.67;56.23;94530.38;5035812;28;20108;-35
2023/05/16 04:43:47;;;;;;;0.75;0.28;;;;;;;17.75;55.89;94517.56;5035096;28;20025;-34
2023/05/16 04:46:14;;;;;;;0.57;0.10;;;;;;;17.64;56.46;94509.47;5041351;28;20476;-34
2023/05/16 04:48:39;;;;;;;1.95;0.55;;;;;;;17.67;56.50;94511.19;5035245;28;20039;-35
2023/05/16 04:51:05;;;;;;;0.47;0.20;;;;;;;17.76;55.83;94510.81;5035234;28;20112;-33
2023/05/16 04:53:30;;;;;;;1.95;0.25;;;;;;;17.30;57.34;94515.34;5034943;28;20431;-34
2023/05/16 04:55:56;;;;;;;0.10;0.10;;;;;;;17.55;56.49;94508.56;5035098;28;20026;-34
2023/05/16 04:58:23;;;;;;;1.77;0.22;;;;;;;17.61;57.00;94505.75;5034501;28;20041;-34
2023/05/16 05:00:50;;;;;;;0.93;0.30;;;;;;;17.59;56.22;94502.78;5045794;28;20064;-33
2023/05/16 05:03:15;;;;;;;1.13;0.20;;;;;;;17.74;55.87;94502.34;5034788;28;20093;-34
2023/05/16 05:05:41;;;;;;;1.02;0.30;;;;;;;17.62;56.64;94490.03;5035121;28;20025;-34
2023/05/16 05:08:06;;;;;;;0.82;0.30;;;;;;;17.57;56.95;94486.84;5034893;28;20017;-34
2023/05/16 05:10:32;;;;;;;1.52;0.30;;;;;;;17.71;56.40;94482.19;5034372;28;20461;-34
2023/05/16 05:12:57;;;;;;;1.38;0.28;;;;;;;17.52;56.96;94489.66;5034514;28;20100;-34
2023/05/16 05:15:23;;;;;;;0.95;0.13;;;;;;;17.62;56.78;94490.03;5034616;28;20029;-34
2023/05/16 05:17:48;;;;;;;1.95;0.20;;;;;;;17.57;56.94;94484.09;5037992;28;20491;-34
2023/05/16 05:20:14;;;;;;;0.60;0.28;;;;;;;17.68;56.46;94482.50;5038462;28;20028;-33
2023/05/16 05:22:40;;;;;;;1.23;0.30;;;;;;;17.72;56.38;94475.47;5036041;28;20020;-34
2023/05/16 05:25:05;;;;;;;1.88;0.70;;;;;;;17.53;57.16;94482.94;5040156;28;20025;-33
2023/05/16 05:27:31;;;;;;;0.63;0.30;;;;;;;17.71;56.74;94487.69;5034621;28;20397;-34
2023/05/16 05:29:56;;;;;;;0.60;0.30;;;;;;;17.83;56.31;94482.78;5035551;28;20018;-34
2023/05/16 05:32:22;;;;;;;1.02;0.40;;;;;;;17.79;56.65;94502.28;5034160;28;20027;-34
2023/05/16 05:34:47;;;;;;;0.73;0.32;;;;;;;17.87;55.94;94500.41;5034708;28;20027;-34
2023/05/16 05:37:13;;;;;;;0.57;0.30;;;;;;;17.80;56.23;94500.28;5034332;28;20021;-34
2023/05/16 05:39:39;;;;;;;1.33;0.30;;;;;;;17.76;56.32;94506.06;5034284;28;20036;-34
2023/05/16 05:42:05;;;;;;;0.50;0.20;;;;;;;17.83;55.96;94512.94;5034647;28;20021;-34
2023/05/16 05:44:32;;;;;;;2.15;0.30;;;;;;;17.86;56.03;94514.66;5034136;28;20037;-34
2023/05/16 05:46:57;;;;;;;1.38;0.40;;;;;;;17.62;57.01;94507.22;5033856;28;20087;-34
2023/05/16 05:49:25;;;;;;;0.63;0.40;;;;;;;17.69;57.02;94505.91;5033974;28;20025;-34
2023/05/16 05:51:53;;;;;;;1.15;0.98;;;;;;;17.67;57.05;94503.72;5033745;28;20116;-34
2023/05/16 05:54:18;;;;;;;0.57;0.30;;;;;;;17.78;56.99;94500.81;5041510;28;20524;-34
2023/05/16 05:56:44;;;;;;;1.30;0.47;;;;;;;17.86;56.58;94493.47;5034140;28;20112;-34
2023/05/16 05:59:09;;;;;;;1.15;0.40;;;;;;;17.80;56.52;94492.78;5034292;28;20381;-34
2023/05/16 06:01:35;;;;;;;0.45;0.30;;;;;;;17.87;56.76;94496.94;5033800;28;20017;-34
2023/05/16 06:04:01;;;;;;;0.50;0.30;;;;;;;17.92;56.79;94490.66;5033830;28;20473;-33
2023/05/16 06:06:27;;;;;;;2.05;0.30;;;;;;;17.74;57.24;94496.88;5034034;28;20024;-34
2023/05/16 06:08:52;;;;;;;2.28;0.20;;;;;;;17.93;56.75;94503.81;5033694;28;20026;-34
2023/05/16 06:11:18;;;;;;;1.08;0.40;;;;;;;17.81;57.13;94499.00;5031791;28;20025;-33
2023/05/16 06:13:43;;;;;;;0.43;0.30;;;;;;;17.94;56.52;94504.56;5033592;28;20026;-34
2023/05/16 06:16:09;;;;;;;1.08;0.20;;;;;;;17.89;56.68;94506.13;5033528;28;20021;-33
2023/05/16 06:18:34;;;;;;;0.68;0.20;;;;;;;18.01;56.66;94503.97;5033866;28;20041;-34
2023/05/16 06:20:59;;;;;;;0.17;0.17;;;;;;;17.78;57.79;94500.81;5033754;28;20017;-33
2023/05/16 06:23:25;;;;;;;1.48;0.20;;;;;;;17.84;56.98;94500.72;5033911;28;20016;-34
2023/05/16 06:25:51;;;;;;;0.90;0.10;;;;;;;17.87;56.93;94486.72;5033452;28;20021;-34
2023/05/16 06:28:17;;;;;;;0.73;0.20;;;;;;;17.83;57.06;94491.00;5033230;28;20110;-34
2023/05/16 06:30:43;;;;;;;0.68;0.20;;;;;;;17.73;57.63;94495.38;5033427;28;20048;-34
2023/05/16 06:33:08;;;;;;;0.95;0.20;;;;;;;17.93;56.94;94487.34;5032312;28;20025;-33
2023/05/16 06:35:33;;;;;;;0.20;0.15;;;;;;;17.92;57.06;94496.88;5037537;28;20087;-33
2023/05/16 06:37:59;;;;;;;1.27;0.30;;;;;;;17.78;57.25;94491.84;5033708;28;20507;-34
2023/05/16 06:40:25;;;;;;;3.58;0.40;;;;;;;17.85;57.13;94493.97;5033211;28;20439;-34
2023/05/16 06:42:51;;;;;;;0.82;0.20;;;;;;;18.01;56.72;94503.97;5031972;28;20408;-33
2023/05/16 06:45:16;;;;;;;2.45;0.30;;;;;;;18.02;56.86;94499.97;5032990;28;20021;-34
2023/05/16 06:47:42;;;;;;;0.63;0.22;;;;;;;18.05;57.10;94512.63;5033202;28;20083;-34
2023/05/16 06:50:09;;;;;;;0.77;0.20;;;;;;;18.01;57.54;94511.44;5033062;28;20111;-33
2023/05/16 06:52:34;;;;;;;0.75;0.35;;;;;;;18.07;57.41;94518.31;5031833;28;20093;-34
2023/05/16 06:54:59;;;;;;;1.42;0.43;;;;;;;18.10;57.32;94527.53;5033072;28;20161;-34
2023/05/16 06:57:25;;;;;;;2.15;0.60;;;;;;;18.15;57.40;94529.44;5033015;28;20049;-33
2023/05/16 06:59:50;;;;;;;3.10;0.40;;;;;;;17.92;57.59;94529.03;5033168;28;20022;-34
2023/05/16 07:02:16;;;;;;;0.82;0.30;;;;;;;18.04;57.26;94538.59;5032962;28;20533;-34
2023/05/16 07:04:41;;;;;;;0.52;0.30;;;;;;;18.00;57.63;94543.63;5033023;28;20032;-35
2023/05/16 07:07:07;;;;;;;1.10;0.30;;;;;;;18.01;57.51;94547.09;5032940;28;20378;-33
2023/05/16 07:09:34;;;;;;;1.80;0.17;;;;;;;18.00;57.67;94545.63;5044628;28;20067;-33
2023/05/16 07:12:00;;;;;;;0.20;0.10;;;;;;;17.95;57.70;94556.16;5037530;28;20086;-34
2023/05/16 07:14:25;;;;;;;1.30;0.13;;;;;;;17.99;57.54;94550.38;5032687;28;20021;-35
2023/05/16 07:16:51;;;;;;;2.30;0.40;;;;;;;17.88;58.40;94556.00;5032828;28;20026;-33
2023/05/16 07:19:16;;;;;;;0.35;0.25;;;;;;;18.19;57.77;94547.06;5033257;28;20159;-35
2023/05/16 07:21:42;;;;;;;1.60;0.30;;;;;;;18.20;57.81;94551.28;5033479;28;20021;-34
2023/05/16 07:24:07;;;;;;;1.52;0.30;;;;;;;18.10;58.40;94547.47;5036221;28;20013;-34
2023/05/16 07:26:32;;;;;;;1.42;0.40;;;;;;;18.19;58.47;94552.56;5036364;28;20040;-34
2023/05/16 07:28:58;;;;;;;0.85;0.40;;;;;;;18.31;57.97;94559.38;5036537;28;20044;-34
2023/05/16 07:31:23;;;;;;;1.83;0.68;;;;;;;18.12;58.71;94553.16;5036748;28;20377;-33
2023/05/16 07:33:49;;;;;;;2.05;0.30;;;;;;;18.10;58.36;94552.94;5036575;28;20075;-34
2023/05/16 07:36:15;;;;;;;1.08;0.30;;;;;;;18.17;57.98;94557.09;5036776;28;20079;-34
2023/05/16 07:38:42;;;;;;;2.30;0.40;;;;;;;18.19;58.02;94558.03;5041183;28;20033;-34
2023/05/16 07:41:07;;;;;;;3.20;0.50;;;;;;;18.17;58.19;94563.34;5036324;28;20468;-35
2023/05/16 07:43:36;;;;;;;5.25;0.90;;;;;;;18.26;58.17;94568.44;5036397;28;20048;-34
2023/05/16 07:46:02;;;;;;;2.42;0.47;;;;;;;18.26;58.66;94562.94;5034918;28;20021;-33
2023/05/16 07:48:28;;;;;;;3.45;0.40;;;;;;;18.26;57.57;94560.19;5035943;28;20036;-33
2023/05/16 07:50:54;;;;;;;0.95;0.40;;;;;;;18.17;57.86;94566.06;5036301;28;20045;-35
2023/05/16 07:53:20;;;;;;;1.15;0.30;;;;;;;18.19;57.57;94562.78;5036038;28;20067;-34
2023/05/16 07:55:46;;;;;;;0.60;0.28;;;;;;;18.20;57.73;94567.75;5036169;28;20025;-33
2023/05/16 07:58:12;;;;;;;1.67;0.30;;;;;;;18.05;57.97;94564.72;5035682;28;20133;-33
2023/05/16 08:00:38;;;;;;;1.10;0.35;;;;;;;18.21;57.97;94565.75;5036542;28;20536;-34
2023/05/16 08:03:03;;;;;;;0.60;0.30;;;;;;;18.34;57.03;94565.06;5035801;28;20027;-33
2023/05/16 08:05:28;;;;;;;0.75;0.20;;;;;;;18.36;56.90;94566.03;5036090;28;20025;-34
2023/05/16 08:07:55;;;;;;;1.60;0.32;;;;;;;18.26;57.42;94568.44;5035825;28;20028;-34
2023/05/16 08:10:22;;;;;;;2.08;0.40;;;;;;;18.07;57.99;94562.22;5035895;28;20025;-33
2023/05/16 08:12:47;;;;;;;1.00;0.30;;;;;;;18.26;57.41;94551.97;5035682;28;20381;-35
2023/05/16 08:15:13;;;;;;;2.92;0.40;;;;;;;18.17;57.79;94568.09;5035472;28;20024;-33
2023/05/16 08:17:38;;;;;;;1.35;0.40;;;;;;;18.28;57.54;94568.66;5036264;28;20484;-34
2023/05/16 08:20:04;;;;;;;1.85;0.32;;;;;;;18.27;57.91;94567.19;5036135;28;20020;-33
2023/05/16 08:22:31;;;;;;;1.88;0.85;;;;;;;18.15;58.12;94571.34;5035676;28;20469;-33
2023/05/16 08:24:56;;;;;;;0.82;0.30;;;;;;;18.13;58.23;94571.13;5035724;28;20369;-33
2023/05/16 08:27:23;;;;;;;0.20;0.20;;;;;;;18.15;58.42;94570.59;5035503;28;20029;-33
2023/05/16 08:29:49;;;;;;;0.70;0.20;;;;;;;18.31;57.81;94566.84;5035528;28;20021;-34
2023/05/16 08:32:15;;;;;;;1.80;0.30;;;;;;;18.30;58.21;94585.31;5035449;28;20112;-33
2023/05/16 08:34:41;;;;;;;2.58;0.30;;;;;;;18.28;58.39;94581.63;5035324;28;20100;-33
2023/05/16 08:37:09;;;;;;;0.55;0.20;;;;;;;18.21;58.53;94574.72;5035531;28;20053;-33
2023/05/16 08:39:34;;;;;;;0.93;0.30;;;;;;;18.22;58.60;94573.47;5038828;28;20381;-33
2023/05/16 08:42:00;;;;;;;2.65;0.30;;;;;;;18.30;58.42;94581.84;5035201;28;20014;-33
2023/05/16 08:44:27;;;;;;;2.70;0.40;;;;;;;18.27;58.61;94575.41;5035114;28;20014;-33
2023/05/16 08:46:53;;;;;;;1.33;0.30;;;;;;;18.22;59.05;94578.22;5034857;28;20033;-33
2023/05/16 08:49:20;;;;;;;1.98;0.50;;;;;;;18.25;58.58;94577.94;5035216;28;20045;-34
2023/05/16 08:51:50;;;;;;;1.50;0.22;;;;;;;18.42;58.15;94585.19;5035006;28;20416;-33
2023/05/16 08:54:16;;;;;;;1.83;0.85;;;;;;;18.38;58.54;94584.72;5034952;28;20436;-33
2023/05/16 08:56:43;;;;;;;1.63;0.45;;;;;;;18.20;59.18;94586.97;5034937;28;20033;-33
2023/05/16 08:59:11;;;;;;;4.78;0.57;;;;;;;18.25;58.91;94599.88;5035161;28;20046;-33
2023/05/16 09:01:37;;;;;;;1.77;0.45;;;;;;;18.19;59.18;94588.22;5040941;28;20022;-34
2023/05/16 09:04:06;;;;;;;3.20;0.30;;;;;;;18.27;59.01;94594.63;5043049;28;20051;-33
2023/05/16 09:06:32;;;;;;;1.52;0.40;;;;;;;18.34;58.88;94600.75;5042060;28;20013;-33
2023/05/16 09:08:57;;;;;;;1.38;0.40;;;;;;;18.39;58.68;94599.94;5034664;28;20079;-33
2023/05/16 09:11:23;;;;;;;3.42;0.38;;;;;;;18.19;59.29;94610.16;5034636;28;20078;-33
2023/05/16 09:13:49;;;;;;;3.80;0.60;;;;;;;18.26;59.03;94603.38;5034624;28;20021;-33
2023/05/16 09:16:16;;;;;;;1.52;0.30;;;;;;;18.48;58.29;94616.00;5034791;28;20100;-33
2023/05/16 09:18:44;;;;;;;4.10;0.98;;;;;;;18.33;58.86;94619.22;5042371;28;20457;-34
2023/05/16 09:21:10;;;;;;;4.63;0.50;;;;;;;18.42;58.67;94618.81;5034889;28;20107;-33
2023/05/16 09:23:36;;;;;;;3.70;0.30;;;;;;;18.31;59.10;94617.00;5034354;28;20025;-33
2023/05/16 09:26:04;;;;;;;7.82;0.57;;;;;;;18.43;58.80;94614.09;5034486;28;20022;-33
2023/05/16 09:28:30;;;;;;;3.47;0.40;;;;;;;18.26;59.45;94626.06;5034720;28;20053;-33
2023/05/16 09:30:58;;;;;;;1.75;0.30;;;;;;;18.35;59.19;94624.19;5041873;28;20072;-34
2023/05/16 09:33:27;;;;;;;2.10;0.50;;;;;;;18.34;58.98;94623.44;5038778;28;20022;-33
2023/05/16 09:35:59;;;;;;;9.82;0.47;;;;;;;18.41;59.01;94622.84;5034079;28;20029;-33
2023/05/16 09:38:27;;;;;;;1.02;0.30;;;;;;;18.47;58.90;94618.00;5033503;28;20024;-33
2023/05/16 09:40:53;;;;;;;3.92;0.20;;;;;;;18.46;58.79;94618.53;5032920;28;20041;-33
2023/05/16 09:43:25;;;;;;;2.20;0.40;;;;;;;18.31;59.15;94617.00;5034084;28;20021;-33
2023/05/16 09:45:52;;;;;;;1.48;0.40;;;;;;;18.41;58.78;94622.13;5032052;28;20079;-33
2023/05/16 09:48:19;;;;;;;3.55;0.50;;;;;;;18.46;58.68;94624.03;5034124;28;20377;-33
2023/05/16 09:50:52;;;;;;;0.77;0.40;;;;;;;18.48;58.76;94624.25;5034115;28;20104;-33
2023/05/16 09:53:26;;;;;;;0.82;0.30;;;;;;;18.12;60.34;94621.00;5040789;28;20017;-33
2023/05/16 09:56:06;;;;;;;0.68;0.20;;;;;;;18.28;59.61;94623.53;5033977;28;20029;-33
2023/05/16 09:58:34;;;;;;;1.02;0.22;;;;;;;18.30;59.84;94629.22;5033872;28;20045;-33
2023/05/16 10:01:01;;;;;;;0.73;0.40;;;;;;;18.35;59.41;94616.69;5040594;28;20029;-35
2023/05/16 10:03:27;;;;;;;1.00;0.32;;;;;;;18.31;59.32;94625.22;5034199;28;20013;-33
2023/05/16 10:05:54;;;;;;;2.25;0.30;;;;;;;18.26;59.46;94628.81;5033970;28;20044;-33
2023/05/16 10:08:26;;;;;;;1.80;0.50;;;;;;;18.48;58.96;94635.22;5033969;28;20036;-33
2023/05/16 10:10:54;;;;;;;0.40;0.30;;;;;;;18.49;58.84;94637.44;5033795;28;20105;-29
2023/05/16 10:13:30;;;;;;;0.90;0.30;;;;;;;18.37;59.36;94633.38;5033361;28;20156;-29
2023/05/16 10:15:57;;;;;;;1.23;0.40;;;;;;;18.45;58.96;94636.25;5033748;28;20018;-29
2023/05/16 10:18:30;;;;;;;1.20;0.47;;;;;;;18.38;59.56;94634.13;5033495;28;20014;-29
2023/05/16 10:21:04;;;;;;;0.90;0.40;;;;;;;18.56;58.77;94641.59;5033694;28;20152;-30
2023/05/16 10:23:31;;;;;;;0.80;0.40;;;;;;;18.40;59.22;94642.59;5032697;28;20415;-29
2023/05/16 10:26:00;;;;;;;1.88;0.63;;;;;;;18.43;59.37;94636.03;5033257;28;20021;-29
2023/05/16 10:28:26;;;;;;;3.63;1.00;;;;;;;18.28;59.44;94648.22;5033598;28;20021;-33
2023/05/16 10:30:54;;;;;;;3.13;1.00;;;;;;;18.16;60.08;94648.91;5033742;28;20017;-30
2023/05/16 10:33:19;;;;;;;2.85;0.85;;;;;;;18.17;60.04;94648.38;5033400;28;20048;-30
2023/05/16 10:35:47;;;;;;;4.32;0.73;;;;;;;18.15;60.55;94652.91;5033474;28;20107;-29
2023/05/16 10:38:16;;;;;;;1.55;0.70;;;;;;;18.24;60.21;94652.53;5033265;28;20029;-30
2023/05/16 10:40:42;;;;;;;1.10;0.40;;;;;;;18.01;60.74;94652.06;5038352;28;20036;-30
2023/05/16 10:43:08;;;;;;;1.33;0.60;;;;;;;18.22;60.03;94650.28;5040422;28;20013;-30
2023/05/16 10:45:42;;;;;;;1.55;0.50;;;;;;;18.16;60.46;94654.38;5033293;28;20384;-31
2023/05/16 10:48:11;;;;;;;0.75;0.43;;;;;;;18.09;60.75;94652.97;5033197;28;20021;-30
2023/05/16 10:50:43;;;;;;;1.45;0.50;;;;;;;18.41;59.99;94657.78;5033134;28;20465;-29
2023/05/16 10:53:18;;;;;;;2.25;0.80;;;;;;;18.26;60.57;94655.50;5032991;28;20029;-30
2023/05/16 10:56:04;;;;;;;1.25;0.65;;;;;;;18.15;61.01;94659.13;5033021;28;20465;-30
2023/05/16 10:58:30;;;;;;;4.63;0.70;;;;;;;18.21;60.74;94654.31;5036377;28;20057;-29
2023/05/16 11:01:13;;;;;;;2.25;0.70;;;;;;;18.12;61.43;94660.16;5044465;28;20555;-29
2023/05/16 11:04:03;;;;;;;1.92;0.90;;;;;;;18.15;61.17;94655.66;5035832;28;20091;-29
2023/05/16 11:06:44;;;;;;;10.02;4.70;;;;;;;18.25;61.29;94645.78;5037504;28;20025;-30
2023/05/16 11:09:15;;;;;;;6.57;3.95;;;;;;;18.21;61.76;94653.56;5037201;28;20025;-29
2023/05/16 11:11:42;;;;;;;5.00;2.85;;;;;;;18.30;61.85;94662.16;5047838;28;20029;-29
2023/05/16 11:14:08;;;;;;;5.10;2.53;;;;;;;18.16;62.35;94662.63;5036885;28;20021;-31
2023/05/16 11:16:35;;;;;;;4.65;1.63;;;;;;;18.42;61.59;94665.47;5037100;28;20083;-29
2023/05/16 11:19:07;;;;;;;3.72;1.92;;;;;;;18.28;62.29;94664.69;5036786;28;20400;-29
2023/05/16 11:22:07;;;;;;;3.28;1.15;;;;;;;18.27;62.07;94660.47;5037166;28;20097;-30
2023/05/16 11:24:35;;;;;;;1.65;0.90;;;;;;;18.51;61.64;94665.13;5039108;28;20037;-30
2023/05/16 11:27:02;;;;;;;2.65;0.75;;;;;;;18.60;61.19;94661.28;5036897;28;20021;-29
2023/05/16 11:29:30;;;;;;;1.48;0.98;;;;;;;18.25;62.25;94662.97;5036466;28;20479;-30
2023/05/16 11:31:58;;;;;;;2.08;0.60;;;;;;;18.34;61.86;94661.88;5037268;28;20021;-29
2023/05/16 11:34:24;;;;;;;2.90;0.65;;;;;;;18.41;61.78;94669.50;5036705;28;20128;-29